sensor_id;sensor_type;location;lat;lon;timestamp;P1;durP1;ratioP1;P2;durP2;ratioP2
4521;SDS011;2273;48.464;11.926;2022-09-01T00:02:05;29.93;;;20.00;;
4521;SDS011;2273;48.464;11.926;2022-09-01T00:04:34;31.77;;;23.40;;
4521;SDS011;2273;48.464;11.926;2022-09-01T00:07:06;28.10;;;21.10;;
4521;SDS011;2273;48.464;11.926;2022-09-01T00:09:32;30.10;;;21.83;;
4521;SDS011;2273;48.464;11.926;2022-09-01T00:11:58;32.67;;;19.80;;
4521;SDS011;2273;48.464;11.926;2022-09-01T00:14:25;24.73;;;19.50;;
4521;SDS011;2273;48.464;11.926;2022-09-01T00:16:53;26.57;;;20.53;;
4521;SDS011;2273;48.464;11.926;2022-09-01T00:19:20;22.80;;;17.53;;
4521;SDS011;2273;48.464;11.926;2022-09-01T00:21:46;30.30;;;20.03;;
4521;SDS011;2273;48.464;11.926;2022-09-01T00:24:13;29.23;;;19.00;;
4521;SDS011;2273;48.464;11.926;2022-09-01T00:26:39;24.53;;;16.33;;
4521;SDS011;2273;48.464;11.926;2022-09-01T00:29:05;23.77;;;18.33;;
4521;SDS011;2273;48.464;11.926;2022-09-01T00:31:31;25.10;;;18.23;;
4521;SDS011;2273;48.464;11.926;2022-09-01T00:33:57;25.40;;;18.63;;
4521;SDS011;2273;48.464;11.926;2022-09-01T00:36:22;24.80;;;20.30;;
4521;SDS011;2273;48.464;11.926;2022-09-01T00:38:48;30.60;;;19.83;;
4521;SDS011;2273;48.464;11.926;2022-09-01T00:41:15;26.30;;;20.23;;
4521;SDS011;2273;48.464;11.926;2022-09-01T00:46:14;24.03;;;18.90;;
4521;SDS011;2273;48.464;11.926;2022-09-01T00:48:44;29.60;;;21.40;;
4521;SDS011;2273;48.464;11.926;2022-09-01T00:51:11;30.63;;;22.17;;
4521;SDS011;2273;48.464;11.926;2022-09-01T00:53:38;32.80;;;22.10;;
4521;SDS011;2273;48.464;11.926;2022-09-01T00:56:05;27.33;;;21.47;;
4521;SDS011;2273;48.464;11.926;2022-09-01T00:58:32;30.30;;;21.13;;
4521;SDS011;2273;48.464;11.926;2022-09-01T01:00:58;31.13;;;21.90;;
4521;SDS011;2273;48.464;11.926;2022-09-01T01:03:24;30.60;;;20.73;;
4521;SDS011;2273;48.464;11.926;2022-09-01T01:08:48;25.60;;;18.10;;
4521;SDS011;2273;48.464;11.926;2022-09-01T01:11:22;29.80;;;20.17;;
4521;SDS011;2273;48.464;11.926;2022-09-01T01:16:20;34.73;;;22.60;;
4521;SDS011;2273;48.464;11.926;2022-09-01T01:18:47;29.60;;;21.80;;
4521;SDS011;2273;48.464;11.926;2022-09-01T01:21:21;30.07;;;21.63;;
4521;SDS011;2273;48.464;11.926;2022-09-01T01:24:24;26.57;;;19.97;;
4521;SDS011;2273;48.464;11.926;2022-09-01T01:26:51;30.13;;;21.03;;
4521;SDS011;2273;48.464;11.926;2022-09-01T01:29:17;28.03;;;20.70;;
4521;SDS011;2273;48.464;11.926;2022-09-01T01:31:44;30.73;;;22.03;;
4521;SDS011;2273;48.464;11.926;2022-09-01T01:34:14;25.87;;;19.40;;
4521;SDS011;2273;48.464;11.926;2022-09-01T01:36:42;32.03;;;21.93;;
4521;SDS011;2273;48.464;11.926;2022-09-01T01:39:13;32.50;;;21.50;;
4521;SDS011;2273;48.464;11.926;2022-09-01T01:41:41;28.83;;;18.57;;
4521;SDS011;2273;48.464;11.926;2022-09-01T01:44:10;28.67;;;19.60;;
4521;SDS011;2273;48.464;11.926;2022-09-01T01:46:40;27.00;;;20.67;;
4521;SDS011;2273;48.464;11.926;2022-09-01T01:49:07;30.17;;;21.20;;
4521;SDS011;2273;48.464;11.926;2022-09-01T01:51:34;27.53;;;20.73;;
4521;SDS011;2273;48.464;11.926;2022-09-01T01:53:59;26.93;;;18.97;;
4521;SDS011;2273;48.464;11.926;2022-09-01T01:56:30;32.70;;;20.27;;
4521;SDS011;2273;48.464;11.926;2022-09-01T01:58:59;25.57;;;20.07;;
4521;SDS011;2273;48.464;11.926;2022-09-01T02:01:26;27.37;;;20.50;;
4521;SDS011;2273;48.464;11.926;2022-09-01T02:03:55;25.17;;;19.03;;
4521;SDS011;2273;48.464;11.926;2022-09-01T02:06:22;29.07;;;20.00;;
4521;SDS011;2273;48.464;11.926;2022-09-01T02:08:54;34.67;;;21.57;;
4521;SDS011;2273;48.464;11.926;2022-09-01T02:11:22;24.33;;;18.00;;
4521;SDS011;2273;48.464;11.926;2022-09-01T02:13:51;24.43;;;17.07;;
4521;SDS011;2273;48.464;11.926;2022-09-01T02:16:20;29.33;;;20.30;;
4521;SDS011;2273;48.464;11.926;2022-09-01T02:18:46;25.17;;;19.23;;
4521;SDS011;2273;48.464;11.926;2022-09-01T02:21:12;26.60;;;19.10;;
4521;SDS011;2273;48.464;11.926;2022-09-01T02:23:44;27.27;;;21.23;;
4521;SDS011;2273;48.464;11.926;2022-09-01T02:26:12;30.30;;;21.17;;
4521;SDS011;2273;48.464;11.926;2022-09-01T02:28:38;28.17;;;20.10;;
4521;SDS011;2273;48.464;11.926;2022-09-01T02:31:06;28.10;;;19.67;;
4521;SDS011;2273;48.464;11.926;2022-09-01T02:33:33;29.13;;;21.60;;
4521;SDS011;2273;48.464;11.926;2022-09-01T02:36:02;27.40;;;20.53;;
4521;SDS011;2273;48.464;11.926;2022-09-01T02:38:30;30.13;;;20.70;;
4521;SDS011;2273;48.464;11.926;2022-09-01T02:40:59;29.90;;;21.97;;
4521;SDS011;2273;48.464;11.926;2022-09-01T02:43:26;25.63;;;18.77;;
4521;SDS011;2273;48.464;11.926;2022-09-01T02:45:53;27.13;;;20.23;;
4521;SDS011;2273;48.464;11.926;2022-09-01T02:48:26;23.60;;;18.40;;
4521;SDS011;2273;48.464;11.926;2022-09-01T02:50:58;29.60;;;19.73;;
4521;SDS011;2273;48.464;11.926;2022-09-01T02:53:26;24.97;;;19.60;;
4521;SDS011;2273;48.464;11.926;2022-09-01T02:55:55;27.50;;;19.53;;
4521;SDS011;2273;48.464;11.926;2022-09-01T02:58:27;26.33;;;18.30;;
4521;SDS011;2273;48.464;11.926;2022-09-01T03:00:55;24.30;;;17.70;;
4521;SDS011;2273;48.464;11.926;2022-09-01T03:03:22;21.93;;;17.00;;
4521;SDS011;2273;48.464;11.926;2022-09-01T03:05:50;21.17;;;16.20;;
4521;SDS011;2273;48.464;11.926;2022-09-01T03:08:19;22.00;;;16.83;;
4521;SDS011;2273;48.464;11.926;2022-09-01T03:10:45;19.30;;;14.67;;
4521;SDS011;2273;48.464;11.926;2022-09-01T03:13:13;27.13;;;19.40;;
4521;SDS011;2273;48.464;11.926;2022-09-01T03:15:40;21.10;;;15.90;;
4521;SDS011;2273;48.464;11.926;2022-09-01T03:18:07;28.23;;;16.57;;
4521;SDS011;2273;48.464;11.926;2022-09-01T03:20:36;27.30;;;18.20;;
4521;SDS011;2273;48.464;11.926;2022-09-01T03:23:05;22.47;;;16.20;;
4521;SDS011;2273;48.464;11.926;2022-09-01T03:25:36;22.93;;;17.03;;
4521;SDS011;2273;48.464;11.926;2022-09-01T03:28:02;28.70;;;17.37;;
4521;SDS011;2273;48.464;11.926;2022-09-01T03:30:31;33.20;;;20.60;;
4521;SDS011;2273;48.464;11.926;2022-09-01T03:32:58;23.50;;;18.47;;
4521;SDS011;2273;48.464;11.926;2022-09-01T03:35:25;19.67;;;14.97;;
4521;SDS011;2273;48.464;11.926;2022-09-01T03:37:53;25.57;;;18.50;;
4521;SDS011;2273;48.464;11.926;2022-09-01T03:40:24;30.47;;;20.03;;
4521;SDS011;2273;48.464;11.926;2022-09-01T03:42:52;34.53;;;19.30;;
4521;SDS011;2273;48.464;11.926;2022-09-01T03:45:20;26.63;;;17.80;;
4521;SDS011;2273;48.464;11.926;2022-09-01T03:47:45;25.53;;;16.80;;
4521;SDS011;2273;48.464;11.926;2022-09-01T03:50:13;24.93;;;17.33;;
4521;SDS011;2273;48.464;11.926;2022-09-01T03:52:55;25.00;;;18.40;;
4521;SDS011;2273;48.464;11.926;2022-09-01T03:55:25;27.80;;;18.07;;
4521;SDS011;2273;48.464;11.926;2022-09-01T03:58:00;27.83;;;19.23;;
4521;SDS011;2273;48.464;11.926;2022-09-01T04:00:31;28.80;;;18.10;;
4521;SDS011;2273;48.464;11.926;2022-09-01T04:03:01;23.43;;;17.80;;
4521;SDS011;2273;48.464;11.926;2022-09-01T04:05:29;22.90;;;17.57;;
4521;SDS011;2273;48.464;11.926;2022-09-01T04:08:01;28.50;;;18.27;;
4521;SDS011;2273;48.464;11.926;2022-09-01T04:10:31;30.83;;;20.43;;
4521;SDS011;2273;48.464;11.926;2022-09-01T04:12:58;24.07;;;18.57;;
4521;SDS011;2273;48.464;11.926;2022-09-01T04:15:24;26.97;;;20.90;;
4521;SDS011;2273;48.464;11.926;2022-09-01T04:17:50;20.97;;;17.13;;
4521;SDS011;2273;48.464;11.926;2022-09-01T04:20:36;26.37;;;18.47;;
4521;SDS011;2273;48.464;11.926;2022-09-01T04:28:25;31.27;;;20.90;;
4521;SDS011;2273;48.464;11.926;2022-09-01T04:30:58;24.70;;;19.17;;
4521;SDS011;2273;48.464;11.926;2022-09-01T04:33:25;25.63;;;18.87;;
4521;SDS011;2273;48.464;11.926;2022-09-01T04:35:52;23.23;;;18.57;;
4521;SDS011;2273;48.464;11.926;2022-09-01T04:38:22;27.60;;;20.63;;
4521;SDS011;2273;48.464;11.926;2022-09-01T04:40:50;30.20;;;21.40;;
4521;SDS011;2273;48.464;11.926;2022-09-01T04:43:16;31.47;;;22.13;;
4521;SDS011;2273;48.464;11.926;2022-09-01T04:45:42;43.03;;;23.23;;
4521;SDS011;2273;48.464;11.926;2022-09-01T04:48:08;33.80;;;22.37;;
4521;SDS011;2273;48.464;11.926;2022-09-01T04:50:34;29.80;;;21.70;;
4521;SDS011;2273;48.464;11.926;2022-09-01T04:53:13;27.37;;;18.90;;
4521;SDS011;2273;48.464;11.926;2022-09-01T04:55:43;23.80;;;18.27;;
4521;SDS011;2273;48.464;11.926;2022-09-01T04:58:10;26.30;;;16.97;;
4521;SDS011;2273;48.464;11.926;2022-09-01T05:00:38;26.00;;;18.90;;
4521;SDS011;2273;48.464;11.926;2022-09-01T05:03:04;27.70;;;18.70;;
4521;SDS011;2273;48.464;11.926;2022-09-01T05:05:49;28.10;;;19.07;;
4521;SDS011;2273;48.464;11.926;2022-09-01T05:08:16;23.73;;;16.70;;
4521;SDS011;2273;48.464;11.926;2022-09-01T05:10:45;28.93;;;18.27;;
4521;SDS011;2273;48.464;11.926;2022-09-01T05:13:20;23.17;;;18.07;;
4521;SDS011;2273;48.464;11.926;2022-09-01T05:15:58;25.30;;;19.20;;
4521;SDS011;2273;48.464;11.926;2022-09-01T05:18:26;23.80;;;17.63;;
4521;SDS011;2273;48.464;11.926;2022-09-01T05:20:52;24.27;;;18.60;;
4521;SDS011;2273;48.464;11.926;2022-09-01T05:23:19;29.63;;;18.77;;
4521;SDS011;2273;48.464;11.926;2022-09-01T05:25:46;24.83;;;18.77;;
4521;SDS011;2273;48.464;11.926;2022-09-01T05:28:15;22.00;;;16.93;;
4521;SDS011;2273;48.464;11.926;2022-09-01T05:30:43;28.50;;;19.80;;
4521;SDS011;2273;48.464;11.926;2022-09-01T05:33:10;21.97;;;17.00;;
4521;SDS011;2273;48.464;11.926;2022-09-01T05:35:42;25.10;;;18.73;;
4521;SDS011;2273;48.464;11.926;2022-09-01T05:38:10;28.10;;;20.20;;
4521;SDS011;2273;48.464;11.926;2022-09-01T05:40:38;25.10;;;18.20;;
4521;SDS011;2273;48.464;11.926;2022-09-01T05:43:07;24.60;;;17.20;;
4521;SDS011;2273;48.464;11.926;2022-09-01T05:45:35;28.57;;;17.90;;
4521;SDS011;2273;48.464;11.926;2022-09-01T05:48:01;27.00;;;18.10;;
4521;SDS011;2273;48.464;11.926;2022-09-01T05:50:28;25.10;;;18.77;;
4521;SDS011;2273;48.464;11.926;2022-09-01T05:52:53;22.37;;;17.97;;
4521;SDS011;2273;48.464;11.926;2022-09-01T05:55:20;25.43;;;18.07;;
4521;SDS011;2273;48.464;11.926;2022-09-01T05:57:47;25.50;;;18.63;;
4521;SDS011;2273;48.464;11.926;2022-09-01T06:00:13;23.67;;;16.70;;
4521;SDS011;2273;48.464;11.926;2022-09-01T06:02:39;25.20;;;18.03;;
4521;SDS011;2273;48.464;11.926;2022-09-01T06:05:09;29.37;;;18.30;;
4521;SDS011;2273;48.464;11.926;2022-09-01T06:07:35;25.60;;;18.43;;
4521;SDS011;2273;48.464;11.926;2022-09-01T06:10:05;24.80;;;17.60;;
4521;SDS011;2273;48.464;11.926;2022-09-01T06:12:30;29.53;;;20.20;;
4521;SDS011;2273;48.464;11.926;2022-09-01T06:14:57;28.13;;;21.50;;
4521;SDS011;2273;48.464;11.926;2022-09-01T06:17:25;29.40;;;20.13;;
4521;SDS011;2273;48.464;11.926;2022-09-01T06:19:56;31.37;;;22.10;;
4521;SDS011;2273;48.464;11.926;2022-09-01T06:22:22;24.77;;;19.00;;
4521;SDS011;2273;48.464;11.926;2022-09-01T06:24:49;28.23;;;19.80;;
4521;SDS011;2273;48.464;11.926;2022-09-01T06:27:18;33.33;;;16.80;;
4521;SDS011;2273;48.464;11.926;2022-09-01T06:29:44;33.03;;;21.90;;
4521;SDS011;2273;48.464;11.926;2022-09-01T06:32:13;25.93;;;21.17;;
4521;SDS011;2273;48.464;11.926;2022-09-01T06:34:39;38.73;;;22.60;;
4521;SDS011;2273;48.464;11.926;2022-09-01T06:37:12;30.17;;;21.30;;
4521;SDS011;2273;48.464;11.926;2022-09-01T06:39:39;29.70;;;21.60;;
4521;SDS011;2273;48.464;11.926;2022-09-01T06:42:05;29.10;;;21.80;;
4521;SDS011;2273;48.464;11.926;2022-09-01T06:44:44;26.27;;;20.30;;
4521;SDS011;2273;48.464;11.926;2022-09-01T06:47:10;30.90;;;23.00;;
4521;SDS011;2273;48.464;11.926;2022-09-01T06:49:37;29.77;;;22.50;;
4521;SDS011;2273;48.464;11.926;2022-09-01T06:52:08;28.60;;;20.57;;
4521;SDS011;2273;48.464;11.926;2022-09-01T06:54:35;30.73;;;19.30;;
4521;SDS011;2273;48.464;11.926;2022-09-01T06:57:03;26.13;;;19.87;;
4521;SDS011;2273;48.464;11.926;2022-09-01T06:59:29;26.43;;;20.20;;
4521;SDS011;2273;48.464;11.926;2022-09-01T07:01:57;27.00;;;19.87;;
4521;SDS011;2273;48.464;11.926;2022-09-01T07:04:29;29.43;;;18.50;;
4521;SDS011;2273;48.464;11.926;2022-09-01T07:07:00;25.90;;;18.17;;
4521;SDS011;2273;48.464;11.926;2022-09-01T07:09:46;25.73;;;18.20;;
4521;SDS011;2273;48.464;11.926;2022-09-01T07:12:19;25.73;;;18.53;;
4521;SDS011;2273;48.464;11.926;2022-09-01T07:14:47;19.17;;;15.03;;
4521;SDS011;2273;48.464;11.926;2022-09-01T07:17:13;20.77;;;16.13;;
4521;SDS011;2273;48.464;11.926;2022-09-01T07:19:41;18.03;;;14.77;;
4521;SDS011;2273;48.464;11.926;2022-09-01T07:22:06;19.50;;;16.03;;
4521;SDS011;2273;48.464;11.926;2022-09-01T07:24:33;25.77;;;14.63;;
4521;SDS011;2273;48.464;11.926;2022-09-01T07:27:17;19.63;;;15.47;;
4521;SDS011;2273;48.464;11.926;2022-09-01T07:29:44;21.10;;;13.70;;
4521;SDS011;2273;48.464;11.926;2022-09-01T07:32:11;17.17;;;13.57;;
4521;SDS011;2273;48.464;11.926;2022-09-01T07:34:38;18.00;;;13.50;;
4521;SDS011;2273;48.464;11.926;2022-09-01T07:37:06;14.33;;;12.20;;
4521;SDS011;2273;48.464;11.926;2022-09-01T07:39:34;12.63;;;10.93;;
4521;SDS011;2273;48.464;11.926;2022-09-01T07:42:18;12.50;;;11.13;;
4521;SDS011;2273;48.464;11.926;2022-09-01T07:45:04;13.77;;;11.87;;
4521;SDS011;2273;48.464;11.926;2022-09-01T07:47:44;13.23;;;10.07;;
4521;SDS011;2273;48.464;11.926;2022-09-01T07:50:11;12.07;;;9.57;;
4521;SDS011;2273;48.464;11.926;2022-09-01T07:52:39;14.70;;;10.37;;
4521;SDS011;2273;48.464;11.926;2022-09-01T07:55:10;11.40;;;9.60;;
4521;SDS011;2273;48.464;11.926;2022-09-01T07:57:41;11.50;;;10.10;;
4521;SDS011;2273;48.464;11.926;2022-09-01T08:00:08;11.23;;;9.60;;
4521;SDS011;2273;48.464;11.926;2022-09-01T08:02:38;11.47;;;9.37;;
4521;SDS011;2273;48.464;11.926;2022-09-01T08:05:05;13.20;;;9.07;;
4521;SDS011;2273;48.464;11.926;2022-09-01T08:07:36;12.40;;;8.70;;
4521;SDS011;2273;48.464;11.926;2022-09-01T08:10:03;10.33;;;7.80;;
4521;SDS011;2273;48.464;11.926;2022-09-01T08:12:31;10.70;;;7.90;;
4521;SDS011;2273;48.464;11.926;2022-09-01T08:14:56;12.70;;;7.70;;
4521;SDS011;2273;48.464;11.926;2022-09-01T08:17:22;9.33;;;7.97;;
4521;SDS011;2273;48.464;11.926;2022-09-01T08:19:47;11.37;;;8.50;;
4521;SDS011;2273;48.464;11.926;2022-09-01T08:22:21;10.20;;;7.70;;
4521;SDS011;2273;48.464;11.926;2022-09-01T08:24:55;7.63;;;6.83;;
4521;SDS011;2273;48.464;11.926;2022-09-01T08:27:21;8.37;;;7.57;;
4521;SDS011;2273;48.464;11.926;2022-09-01T08:29:46;8.80;;;7.90;;
4521;SDS011;2273;48.464;11.926;2022-09-01T08:32:13;8.93;;;7.03;;
4521;SDS011;2273;48.464;11.926;2022-09-01T08:34:38;8.93;;;7.00;;
4521;SDS011;2273;48.464;11.926;2022-09-01T08:37:04;11.13;;;7.83;;
4521;SDS011;2273;48.464;11.926;2022-09-01T08:39:30;8.33;;;7.10;;
4521;SDS011;2273;48.464;11.926;2022-09-01T08:42:04;8.47;;;7.53;;
4521;SDS011;2273;48.464;11.926;2022-09-01T08:47:24;10.23;;;7.10;;
4521;SDS011;2273;48.464;11.926;2022-09-01T08:49:50;8.77;;;7.40;;
4521;SDS011;2273;48.464;11.926;2022-09-01T08:55:08;10.10;;;7.53;;
4521;SDS011;2273;48.464;11.926;2022-09-01T08:57:40;7.67;;;6.20;;
4521;SDS011;2273;48.464;11.926;2022-09-01T09:00:24;7.50;;;6.70;;
4521;SDS011;2273;48.464;11.926;2022-09-01T09:03:19;13.93;;;6.30;;
4521;SDS011;2273;48.464;11.926;2022-09-01T09:08:50;7.87;;;6.53;;
4521;SDS011;2273;48.464;11.926;2022-09-01T09:16:51;6.63;;;5.97;;
4521;SDS011;2273;48.464;11.926;2022-09-01T09:19:22;7.77;;;6.00;;
4521;SDS011;2273;48.464;11.926;2022-09-01T09:21:50;5.93;;;5.30;;
4521;SDS011;2273;48.464;11.926;2022-09-01T09:24:20;7.23;;;5.50;;
4521;SDS011;2273;48.464;11.926;2022-09-01T09:26:49;6.13;;;5.53;;
4521;SDS011;2273;48.464;11.926;2022-09-01T09:29:16;7.83;;;6.10;;
4521;SDS011;2273;48.464;11.926;2022-09-01T09:31:42;9.17;;;6.17;;
4521;SDS011;2273;48.464;11.926;2022-09-01T09:37:14;7.00;;;6.00;;
4521;SDS011;2273;48.464;11.926;2022-09-01T09:45:24;8.40;;;5.60;;
4521;SDS011;2273;48.464;11.926;2022-09-01T09:47:52;11.47;;;5.50;;
4521;SDS011;2273;48.464;11.926;2022-09-01T09:50:21;9.33;;;6.07;;
4521;SDS011;2273;48.464;11.926;2022-09-01T09:52:48;7.63;;;5.63;;
4521;SDS011;2273;48.464;11.926;2022-09-01T09:57:45;18.27;;;7.73;;
4521;SDS011;2273;48.464;11.926;2022-09-01T10:02:53;7.77;;;5.40;;
4521;SDS011;2273;48.464;11.926;2022-09-01T10:07:47;8.70;;;5.20;;
4521;SDS011;2273;48.464;11.926;2022-09-01T10:12:56;7.07;;;5.50;;
4521;SDS011;2273;48.464;11.926;2022-09-01T10:15:23;6.90;;;4.90;;
4521;SDS011;2273;48.464;11.926;2022-09-01T10:17:51;10.43;;;4.90;;
4521;SDS011;2273;48.464;11.926;2022-09-01T10:20:23;11.00;;;4.27;;
4521;SDS011;2273;48.464;11.926;2022-09-01T10:22:50;7.70;;;5.40;;
4521;SDS011;2273;48.464;11.926;2022-09-01T10:25:20;8.30;;;5.30;;
4521;SDS011;2273;48.464;11.926;2022-09-01T10:27:48;5.70;;;5.00;;
4521;SDS011;2273;48.464;11.926;2022-09-01T10:30:17;5.07;;;4.10;;
4521;SDS011;2273;48.464;11.926;2022-09-01T10:32:45;5.80;;;4.43;;
4521;SDS011;2273;48.464;11.926;2022-09-01T10:35:15;5.90;;;4.90;;
4521;SDS011;2273;48.464;11.926;2022-09-01T10:38:05;5.30;;;4.13;;
4521;SDS011;2273;48.464;11.926;2022-09-01T10:40:34;12.83;;;4.97;;
4521;SDS011;2273;48.464;11.926;2022-09-01T10:45:51;7.83;;;4.10;;
4521;SDS011;2273;48.464;11.926;2022-09-01T10:50:46;5.60;;;3.73;;
4521;SDS011;2273;48.464;11.926;2022-09-01T11:01:13;3.80;;;3.10;;
4521;SDS011;2273;48.464;11.926;2022-09-01T11:03:50;8.80;;;3.87;;
4521;SDS011;2273;48.464;11.926;2022-09-01T11:11:58;4.00;;;3.10;;
4521;SDS011;2273;48.464;11.926;2022-09-01T11:14:31;3.77;;;3.40;;
4521;SDS011;2273;48.464;11.926;2022-09-01T11:17:16;4.10;;;3.60;;
4521;SDS011;2273;48.464;11.926;2022-09-01T11:19:45;4.90;;;3.73;;
4521;SDS011;2273;48.464;11.926;2022-09-01T11:27:57;4.30;;;3.30;;
4521;SDS011;2273;48.464;11.926;2022-09-01T11:32:58;4.53;;;3.00;;
4521;SDS011;2273;48.464;11.926;2022-09-01T11:35:55;4.17;;;2.90;;
4521;SDS011;2273;48.464;11.926;2022-09-01T11:38:24;5.47;;;3.27;;
4521;SDS011;2273;48.464;11.926;2022-09-01T11:40:55;6.10;;;3.60;;
4521;SDS011;2273;48.464;11.926;2022-09-01T11:43:21;5.77;;;3.20;;
4521;SDS011;2273;48.464;11.926;2022-09-01T11:46:01;6.77;;;3.27;;
4521;SDS011;2273;48.464;11.926;2022-09-01T11:48:27;8.40;;;3.00;;
4521;SDS011;2273;48.464;11.926;2022-09-01T11:50:59;3.50;;;2.93;;
4521;SDS011;2273;48.464;11.926;2022-09-01T11:53:25;4.90;;;3.23;;
4521;SDS011;2273;48.464;11.926;2022-09-01T11:55:53;4.23;;;3.23;;
4521;SDS011;2273;48.464;11.926;2022-09-01T12:00:53;3.33;;;2.80;;
4521;SDS011;2273;48.464;11.926;2022-09-01T12:05:53;3.73;;;2.80;;
4521;SDS011;2273;48.464;11.926;2022-09-01T12:08:23;6.33;;;3.10;;
4521;SDS011;2273;48.464;11.926;2022-09-01T12:10:59;4.17;;;2.93;;
4521;SDS011;2273;48.464;11.926;2022-09-01T12:13:36;3.37;;;2.93;;
4521;SDS011;2273;48.464;11.926;2022-09-01T12:16:04;5.33;;;2.90;;
4521;SDS011;2273;48.464;11.926;2022-09-01T12:18:43;3.33;;;2.87;;
4521;SDS011;2273;48.464;11.926;2022-09-01T12:21:16;3.70;;;3.10;;
4521;SDS011;2273;48.464;11.926;2022-09-01T12:23:43;5.23;;;3.00;;
4521;SDS011;2273;48.464;11.926;2022-09-01T12:26:11;3.73;;;2.87;;
4521;SDS011;2273;48.464;11.926;2022-09-01T12:28:39;5.60;;;3.17;;
4521;SDS011;2273;48.464;11.926;2022-09-01T12:31:07;4.10;;;2.93;;
4521;SDS011;2273;48.464;11.926;2022-09-01T12:33:37;3.27;;;2.70;;
4521;SDS011;2273;48.464;11.926;2022-09-01T12:39:18;4.60;;;2.50;;
4521;SDS011;2273;48.464;11.926;2022-09-01T12:41:45;7.63;;;2.83;;
4521;SDS011;2273;48.464;11.926;2022-09-01T12:44:28;10.93;;;2.73;;
4521;SDS011;2273;48.464;11.926;2022-09-01T12:47:01;3.00;;;2.27;;
4521;SDS011;2273;48.464;11.926;2022-09-01T12:54:40;4.30;;;3.40;;
4521;SDS011;2273;48.464;11.926;2022-09-01T12:57:06;3.03;;;2.40;;
4521;SDS011;2273;48.464;11.926;2022-09-01T12:59:31;4.37;;;2.67;;
4521;SDS011;2273;48.464;11.926;2022-09-01T13:02:25;18.37;;;2.37;;
4521;SDS011;2273;48.464;11.926;2022-09-01T13:08:06;5.37;;;2.13;;
4521;SDS011;2273;48.464;11.926;2022-09-01T13:10:37;2.53;;;2.20;;
4521;SDS011;2273;48.464;11.926;2022-09-01T13:13:07;6.87;;;2.70;;
4521;SDS011;2273;48.464;11.926;2022-09-01T13:15:33;3.80;;;2.10;;
4521;SDS011;2273;48.464;11.926;2022-09-01T13:18:00;9.50;;;2.40;;
4521;SDS011;2273;48.464;11.926;2022-09-01T13:20:25;3.93;;;2.30;;
4521;SDS011;2273;48.464;11.926;2022-09-01T13:22:51;4.00;;;2.13;;
4521;SDS011;2273;48.464;11.926;2022-09-01T13:25:18;7.37;;;2.50;;
4521;SDS011;2273;48.464;11.926;2022-09-01T13:27:45;3.63;;;2.50;;
4521;SDS011;2273;48.464;11.926;2022-09-01T13:30:16;2.70;;;2.30;;
4521;SDS011;2273;48.464;11.926;2022-09-01T13:32:43;5.00;;;2.20;;
4521;SDS011;2273;48.464;11.926;2022-09-01T13:35:10;3.87;;;2.37;;
4521;SDS011;2273;48.464;11.926;2022-09-01T13:37:40;4.07;;;2.17;;
4521;SDS011;2273;48.464;11.926;2022-09-01T13:40:06;2.27;;;1.83;;
4521;SDS011;2273;48.464;11.926;2022-09-01T13:42:34;2.60;;;2.13;;
4521;SDS011;2273;48.464;11.926;2022-09-01T13:44:59;3.00;;;2.03;;
4521;SDS011;2273;48.464;11.926;2022-09-01T13:47:25;3.20;;;2.30;;
4521;SDS011;2273;48.464;11.926;2022-09-01T13:49:51;5.70;;;2.50;;
4521;SDS011;2273;48.464;11.926;2022-09-01T13:52:16;2.60;;;2.10;;
4521;SDS011;2273;48.464;11.926;2022-09-01T13:54:43;5.83;;;3.37;;
4521;SDS011;2273;48.464;11.926;2022-09-01T13:57:09;7.33;;;2.03;;
4521;SDS011;2273;48.464;11.926;2022-09-01T13:59:35;4.87;;;2.30;;
4521;SDS011;2273;48.464;11.926;2022-09-01T14:02:02;5.30;;;2.67;;
4521;SDS011;2273;48.464;11.926;2022-09-01T14:04:27;2.90;;;2.20;;
4521;SDS011;2273;48.464;11.926;2022-09-01T14:06:53;3.30;;;2.20;;
4521;SDS011;2273;48.464;11.926;2022-09-01T14:09:19;5.27;;;2.90;;
4521;SDS011;2273;48.464;11.926;2022-09-01T14:11:44;2.50;;;2.00;;
4521;SDS011;2273;48.464;11.926;2022-09-01T14:14:10;5.47;;;2.23;;
4521;SDS011;2273;48.464;11.926;2022-09-01T14:16:35;33.33;;;2.80;;
4521;SDS011;2273;48.464;11.926;2022-09-01T14:19:01;5.60;;;2.20;;
4521;SDS011;2273;48.464;11.926;2022-09-01T14:21:26;8.10;;;2.33;;
4521;SDS011;2273;48.464;11.926;2022-09-01T14:23:52;2.47;;;2.13;;
4521;SDS011;2273;48.464;11.926;2022-09-01T14:26:18;2.57;;;1.97;;
4521;SDS011;2273;48.464;11.926;2022-09-01T14:28:44;4.43;;;2.37;;
4521;SDS011;2273;48.464;11.926;2022-09-01T14:31:12;2.40;;;1.90;;
4521;SDS011;2273;48.464;11.926;2022-09-01T14:33:42;1.97;;;1.77;;
4521;SDS011;2273;48.464;11.926;2022-09-01T14:36:14;2.27;;;1.83;;
4521;SDS011;2273;48.464;11.926;2022-09-01T14:38:45;2.50;;;2.10;;
4521;SDS011;2273;48.464;11.926;2022-09-01T14:41:14;3.00;;;2.33;;
4521;SDS011;2273;48.464;11.926;2022-09-01T14:43:40;2.20;;;2.00;;
4521;SDS011;2273;48.464;11.926;2022-09-01T14:46:09;3.07;;;2.00;;
4521;SDS011;2273;48.464;11.926;2022-09-01T14:48:35;2.40;;;2.20;;
4521;SDS011;2273;48.464;11.926;2022-09-01T14:51:01;3.03;;;1.90;;
4521;SDS011;2273;48.464;11.926;2022-09-01T14:53:28;2.07;;;1.70;;
4521;SDS011;2273;48.464;11.926;2022-09-01T14:55:57;3.90;;;2.17;;
4521;SDS011;2273;48.464;11.926;2022-09-01T14:58:25;5.37;;;2.10;;
4521;SDS011;2273;48.464;11.926;2022-09-01T15:00:52;2.40;;;1.83;;
4521;SDS011;2273;48.464;11.926;2022-09-01T15:03:23;7.10;;;2.20;;
4521;SDS011;2273;48.464;11.926;2022-09-01T15:05:50;3.80;;;2.00;;
4521;SDS011;2273;48.464;11.926;2022-09-01T15:08:18;1.53;;;1.40;;
4521;SDS011;2273;48.464;11.926;2022-09-01T15:10:44;2.13;;;1.90;;
4521;SDS011;2273;48.464;11.926;2022-09-01T15:13:10;1.50;;;1.40;;
4521;SDS011;2273;48.464;11.926;2022-09-01T15:15:36;2.73;;;1.93;;
4521;SDS011;2273;48.464;11.926;2022-09-01T15:18:02;4.00;;;1.67;;
4521;SDS011;2273;48.464;11.926;2022-09-01T15:20:28;8.73;;;2.00;;
4521;SDS011;2273;48.464;11.926;2022-09-01T15:23:13;7.53;;;1.70;;
4521;SDS011;2273;48.464;11.926;2022-09-01T15:25:44;2.77;;;2.07;;
4521;SDS011;2273;48.464;11.926;2022-09-01T15:28:09;2.00;;;1.60;;
4521;SDS011;2273;48.464;11.926;2022-09-01T15:30:35;4.20;;;1.60;;
4521;SDS011;2273;48.464;11.926;2022-09-01T15:33:02;2.57;;;2.00;;
4521;SDS011;2273;48.464;11.926;2022-09-01T15:35:28;4.07;;;1.87;;
4521;SDS011;2273;48.464;11.926;2022-09-01T15:37:54;7.20;;;1.80;;
4521;SDS011;2273;48.464;11.926;2022-09-01T15:40:21;2.83;;;1.73;;
4521;SDS011;2273;48.464;11.926;2022-09-01T15:42:47;3.57;;;1.97;;
4521;SDS011;2273;48.464;11.926;2022-09-01T15:45:14;5.33;;;2.00;;
4521;SDS011;2273;48.464;11.926;2022-09-01T15:47:41;2.00;;;1.70;;
4521;SDS011;2273;48.464;11.926;2022-09-01T15:50:08;2.83;;;1.97;;
4521;SDS011;2273;48.464;11.926;2022-09-01T15:52:45;5.43;;;2.00;;
4521;SDS011;2273;48.464;11.926;2022-09-01T15:55:41;1.70;;;1.60;;
4521;SDS011;2273;48.464;11.926;2022-09-01T15:58:11;1.80;;;1.70;;
4521;SDS011;2273;48.464;11.926;2022-09-01T16:00:38;1.70;;;1.40;;
4521;SDS011;2273;48.464;11.926;2022-09-01T16:03:04;3.87;;;1.80;;
4521;SDS011;2273;48.464;11.926;2022-09-01T16:05:30;2.07;;;1.83;;
4521;SDS011;2273;48.464;11.926;2022-09-01T16:07:59;2.63;;;1.70;;
4521;SDS011;2273;48.464;11.926;2022-09-01T16:10:26;4.90;;;1.77;;
4521;SDS011;2273;48.464;11.926;2022-09-01T16:12:53;2.77;;;1.90;;
4521;SDS011;2273;48.464;11.926;2022-09-01T16:15:19;2.43;;;2.03;;
4521;SDS011;2273;48.464;11.926;2022-09-01T16:23:19;2.33;;;2.07;;
4521;SDS011;2273;48.464;11.926;2022-09-01T16:25:45;2.90;;;2.10;;
4521;SDS011;2273;48.464;11.926;2022-09-01T16:28:33;1.90;;;1.70;;
4521;SDS011;2273;48.464;11.926;2022-09-01T16:33:36;2.77;;;2.00;;
4521;SDS011;2273;48.464;11.926;2022-09-01T16:36:08;4.80;;;1.60;;